• Join FlightAware (Why Join?)
  • Login
  • US Flag 
12:21AM EDT


 

Airport Tracker/Info


-or-


 

Live Flight TrackerFlight Track Log ✈ SKW6440 ✈ 19-Apr-2013 ✈ KLAX - KCOS

Flight Track Log - Related Links

Times and Time Zones

All times are in EDT time to prevent confusion due to time zone crossing. See the SKW6440 flight status page for this flight to view local times or setup timezone preferences in your user account.

Time Position Orientation Groundspeed Altitude Reporting Facility
EDT Latitude Longitude Course Direction KTS MPH feet Rate Location/Type
06:52PM 33.9317 -118.4442 48° Northeast 175 201 1,400  Level Los Angeles Center
06:53PM 33.9039 -118.5239 247° West 242 278 3,500 2,400 Climbing Los Angeles Center
06:54PM 34.1912 -117.9509 59° Northeast  Level FlightAware Approximate
06:54PM 33.8650 -118.5981 238° Southwest 270 311 6,400  Level Los Angeles Center
06:55PM 34.2615 -117.8321 68° East  Level FlightAware Approximate
06:55PM 33.8067 -118.5514 146° Southeast 287 330 8,600  Level Los Angeles Center
06:56PM 34.3287 -117.7040 55° Northeast  Level FlightAware Approximate
06:56PM 33.8631 -118.4800 46° Northeast 312 359 10,800  Level Los Angeles Center
06:57PM 34.4065 -117.5803 48° Northeast  Level FlightAware Approximate
06:57PM 33.9364 -118.4233 33° Northeast 326 375 12,900  Level Los Angeles Center
06:58PM 33.9933 -118.3269 55° Northeast 349 402 15,000 1,920 Climbing Los Angeles Center
06:59PM 34.0500 -118.2272 56° Northeast 357 411 16,900 1,740 Climbing Los Angeles Center
07:00PM 34.1094 -118.1222 56° Northeast 374 430 18,700 1,680 Climbing Los Angeles Center
07:01PM 34.1697 -118.0156 56° Northeast 381 438 20,400 1,740 Climbing Los Angeles Center
07:02PM 34.2436 -117.8831 56° Northeast 395 455 22,400 1,740 Climbing Los Angeles Center
07:03PM 34.3064 -117.7717 56° Northeast 401 461 24,100 1,500 Climbing Los Angeles Center
07:04PM 34.3803 -117.6669 49° Northeast 409 471 25,500 1,260 Climbing Los Angeles Center
07:05PM 34.4589 -117.5544 50° Northeast 413 475 26,800 1,080 Climbing Los Angeles Center
07:06PM 34.5356 -117.4436 50° Northeast 427 491 27,800 960 Climbing Los Angeles Center
07:07PM 34.6136 -117.3322 50° Northeast 435 501 28,800 900 Climbing Los Angeles Center
07:08PM 34.6917 -117.2186 50° Northeast 441 507 29,700 780 Climbing Los Angeles Center
07:09PM 34.7872 -117.0797 50° Northeast 450 518 30,500 720 Climbing Los Angeles Center
07:10PM 34.8694 -116.9603 50° Northeast 460 529 31,300 960 Climbing Los Angeles Center
07:11PM 34.9508 -116.8406 50° Northeast 462 532 32,500 1,200 Climbing Los Angeles Center
07:12PM 35.0311 -116.7244 50° Northeast 452 520 33,800 1,200 Climbing Los Angeles Center
07:13PM 35.1097 -116.6089 50° Northeast 447 514 35,100 1,080 Climbing Los Angeles Center
07:14PM 35.2019 -116.4733 50° Northeast 436 502 36,100 900 Climbing Los Angeles Center
07:15PM 35.2781 -116.3633 50° Northeast 429 494 37,000 660 Climbing Los Angeles Center
07:16PM 35.3519 -116.2533 51° Northeast 422 486 37,500 420 Climbing Los Angeles Center
07:17PM 35.4261 -116.1406 51° Northeast 424 488 37,900 240 Climbing Los Angeles Center
07:18PM 35.5039 -116.0297 49° Northeast 429 494 38,100 420 Climbing Los Angeles Center
07:19PM 35.5783 -115.9175 51° Northeast 426 490 38,800 420 Climbing Los Angeles Center
07:20PM 35.6567 -115.7986 51° Northeast 421 484 39,000 60 Climbing Los Angeles Center
07:22PM 35.7439 -115.6603 52° Northeast 427 491 39,000  Level Los Angeles Center
07:23PM 35.7878 -115.5161 69° East 451 519 39,000  Level Los Angeles Center
07:24PM 35.8297 -115.3686 71° East 459 528 39,000  Level Los Angeles Center
07:25PM 35.8722 -115.2183 71° East 467 537 39,000  Level Los Angeles Center
07:26PM 35.9139 -115.0672 71° East 469 540 39,000  Level Los Angeles Center
07:27PM 35.9661 -114.8786 71° East 484 557 39,000  Level Los Angeles Center
07:28PM 36.0106 -114.7231 71° East 484 557 39,000  Level Los Angeles Center
07:29PM 36.0544 -114.5664 71° East 484 557 39,000  Level Los Angeles Center
07:30PM 36.0967 -114.4092 72° East 484 557 39,000  Level Los Angeles Center
07:31PM 36.1411 -114.2511 71° East 488 562 39,000  Level Los Angeles Center
07:32PM 36.1922 -114.0625 71° East 484 557 39,000  Level Los Angeles Center
07:33PM 36.2344 -113.9039 72° East 485 558 39,000  Level Los Angeles Center
07:34PM 36.2764 -113.7461 72° East 484 557 39,000  Level Los Angeles Center
07:35PM 36.3200 -113.5892 71° East 483 556 39,000  Level Los Angeles Center
07:36PM 36.3625 -113.4308 72° East 482 555 39,000  Level Los Angeles Center
07:37PM 36.4033 -113.2728 72° East 483 556 39,000  Level Los Angeles Center
07:38PM 36.4478 -113.1036 72° East 481 554 39,000  Level Los Angeles Center
07:39PM 36.4892 -112.9461 72° East 482 555 39,000  Level Los Angeles Center
07:40PM 36.5383 -112.7578 72° East 480 552 39,000  Level Los Angeles Center
07:41PM 36.5783 -112.6006 72° East 479 551 39,000  Level Los Angeles Center
07:42PM 36.6192 -112.4442 72° East 478 550 39,000  Level Los Angeles Center
07:43PM 36.6589 -112.2878 72° East 477 549 39,000  Level Los Angeles Center
07:44PM 36.6981 -112.1311 73° East 477 549 39,000  Level Los Angeles Center
07:45PM 36.7464 -111.9431 72° East 477 549 39,000  Level Los Angeles Center
07:46PM 36.7786 -111.8172 72° East 479 551 39,000  Level Denver Center
07:47PM 36.8258 -111.6269 73° East 480 552 39,000  Level Denver Center
07:48PM 36.8647 -111.4678 73° East 481 554 39,000  Level Denver Center
07:49PM 36.9047 -111.3092 72° East 481 554 39,000  Level Denver Center
07:50PM 36.9394 -111.1533 74° East 472 543 39,000  Level Denver Center
07:51PM 36.9783 -110.9944 73° East 479 551 39,000  Level Denver Center
07:53PM 37.0250 -110.8042 73° East 479 551 39,000  Level Denver Center
07:54PM 37.0614 -110.6447 74° East 478 550 39,000  Level Denver Center
07:55PM 37.0997 -110.4839 73° East 483 556 39,000  Level Denver Center
07:56PM 37.1372 -110.3236 74° East 483 556 39,000  Level Denver Center
07:57PM 37.1794 -110.1453 73° East 487 560 39,000  Level Denver Center
07:58PM 37.2153 -109.9875 74° East 490 564 39,000  Level Denver Center
07:59PM 37.2569 -109.8039 74° East 491 565 39,000  Level Denver Center
08:00PM 37.2886 -109.6708 73° East 496 571 39,000  Level Denver Center
08:01PM 37.3353 -109.4603 74° East 490 564 39,000  Level Denver Center
08:02PM 37.3725 -109.3014 74° East 494 568 39,000  Level Denver Center
08:03PM 37.4128 -109.1164 75° East 492 566 39,000  Level Denver Center
08:04PM 37.4472 -108.9578 75° East 491 565 39,000 -300 Level Denver Center
08:05PM 37.4892 -108.7708 74° East 495 570 38,400 -540 Descending Denver Center
08:06PM 37.5242 -108.6061 75° East 504 580 37,900 -540 Descending Denver Center
08:07PM 37.5653 -108.4125 75° East 509 586 37,400 -540 Descending Denver Center
08:08PM 37.6014 -108.2469 75° East 511 588 36,900 -540 Descending Denver Center
08:09PM 37.6372 -108.0808 75° East 512 589 36,400 -540 Descending Denver Center
08:10PM 37.6786 -107.8867 75° East 513 590 35,800 -540 Descending Denver Center
08:11PM 37.7136 -107.7197 75° East 513 590 35,400 -540 Descending Denver Center
08:12PM 37.7539 -107.5242 75° East 514 592 34,800 -540 Descending Denver Center
08:13PM 37.7886 -107.3536 76° East 522 601 34,300 -540 Descending Denver Center
08:14PM 37.8283 -107.1644 75° East 517 595 33,800 -540 Descending Denver Center
08:15PM 37.8617 -106.9964 76° East 514 592 33,300 -540 Descending Denver Center
08:16PM 37.9019 -106.7997 75° East 519 597 32,700 -960 Descending Denver Center
08:17PM 37.9347 -106.6322 76° East 516 594 31,400 -1,740 Descending Denver Center
08:18PM 37.9719 -106.4444 76° East 508 585 29,200 -1,860 Descending Denver Center
08:19PM 37.9986 -106.3075 76° East 504 580 27,600 -1,080 Descending Denver Center
08:20PM 38.0397 -106.0950 76° East 487 560 27,000 -660 Descending Denver Center
08:21PM 38.0706 -105.9375 76° East 481 554 26,300 -900 Descending Denver Center
08:23PM 38.1072 -105.7433 76° East 501 577 25,200 -1,020 Descending Denver Center
08:24PM 38.1381 -105.5794 76° East 499 574 24,300 -1,020 Descending Denver Center
08:25PM 38.1725 -105.3936 77° East 487 560 23,100 -1,200 Descending Denver Center
08:26PM 38.2031 -105.2381 76° East 476 548 21,900 -2,280 Descending Denver Center
08:27PM 38.2344 -105.0617 77° East 461 531 18,500 -3,120 Descending Denver Center
08:28PM 38.2608 -104.9183 77° East 443 510 15,600 -2,100 Descending Denver Center
08:29PM 38.2853 -104.7833 77° East 423 487 14,200 -780 Descending Denver Center
08:30PM 38.3472 -104.6581 58° Northeast 394 453 14,000 -180 Descending Denver Center
08:31PM 38.4453 -104.6311 12° North 377 434 13,900 -480 Descending Denver Center
08:32PM 38.5519 -104.6036 11° North 357 411 13,100 -780 Descending Denver Center
08:33PM 38.6489 -104.5808 10° North 365 420 12,300 -840 Descending Denver Center
08:34PM 38.7614 -104.5694 North 355 409 11,400 -840 Descending Denver Center
08:35PM 38.8394 -104.5678 North 301 346 10,700 -840 Descending Denver Center
08:36PM 38.8861 -104.6142 322° Northwest 235 270 9,700 -1,260 Descending Denver Center
08:37PM 38.8692 -104.6811 252° West 206 237 7,900 -1,380 Descending Denver Center
08:38PM 38.8164 -104.6917 189° South 174 200 6,700 -1,200 Descending Denver Center